sensor_id;sensor_type;location;lat;lon;timestamp;pressure;altitude;pressure_sealevel;temperature;humidity
5413;BME280;2729;50.056;8.678;2023-02-01T00:00:11;100791.94;;;7.06;100.00
5413;BME280;2729;50.056;8.678;2023-02-01T00:02:37;100792.81;;;7.05;100.00
5413;BME280;2729;50.056;8.678;2023-02-01T00:05:08;100794.53;;;7.11;100.00
5413;BME280;2729;50.056;8.678;2023-02-01T00:07:35;100792.78;;;7.10;100.00
5413;BME280;2729;50.056;8.678;2023-02-01T00:10:02;100795.41;;;6.95;100.00
5413;BME280;2729;50.056;8.678;2023-02-01T00:12:29;100793.69;;;6.88;100.00
5413;BME280;2729;50.056;8.678;2023-02-01T00:14:55;100799.75;;;6.96;100.00
5413;BME280;2729;50.056;8.678;2023-02-01T00:17:21;100795.41;;;7.08;100.00
5413;BME280;2729;50.056;8.678;2023-02-01T00:19:47;100796.28;;;7.04;100.00
5413;BME280;2729;50.056;8.678;2023-02-01T00:22:13;100787.63;;;7.02;100.00
5413;BME280;2729;50.056;8.678;2023-02-01T00:24:39;100802.25;;;7.28;100.00
5413;BME280;2729;50.056;8.678;2023-02-01T00:27:05;100792.78;;;7.08;100.00
5413;BME280;2729;50.056;8.678;2023-02-01T00:29:31;100784.13;;;7.19;100.00
5413;BME280;2729;50.056;8.678;2023-02-01T00:31:57;100780.63;;;7.26;100.00
5413;BME280;2729;50.056;8.678;2023-02-01T00:34:23;100765.09;;;7.15;100.00
5413;BME280;2729;50.056;8.678;2023-02-01T00:36:49;100784.09;;;7.23;100.00
5413;BME280;2729;50.056;8.678;2023-02-01T00:39:16;100770.28;;;7.12;100.00
5413;BME280;2729;50.056;8.678;2023-02-01T00:41:42;100784.97;;;7.21;100.00
5413;BME280;2729;50.056;8.678;2023-02-01T00:44:08;100786.78;;;6.96;100.00
5413;BME280;2729;50.056;8.678;2023-02-01T00:46:35;100778.06;;;7.17;100.00
5413;BME280;2729;50.056;8.678;2023-02-01T00:49:01;100774.59;;;7.24;100.00
5413;BME280;2729;50.056;8.678;2023-02-01T00:51:28;100771.19;;;6.97;100.00
5413;BME280;2729;50.056;8.678;2023-02-01T00:53:55;100764.22;;;7.13;100.00
5413;BME280;2729;50.056;8.678;2023-02-01T00:56:21;100751.19;;;7.31;100.00
5413;BME280;2729;50.056;8.678;2023-02-01T00:58:47;100733.84;;;7.41;100.00
5413;BME280;2729;50.056;8.678;2023-02-01T01:01:16;100756.44;;;7.21;100.00
5413;BME280;2729;50.056;8.678;2023-02-01T01:03:46;100759.00;;;7.28;100.00
5413;BME280;2729;50.056;8.678;2023-02-01T01:06:14;100757.22;;;7.39;100.00
5413;BME280;2729;50.056;8.678;2023-02-01T01:08:41;100765.09;;;7.20;100.00
5413;BME280;2729;50.056;8.678;2023-02-01T01:11:17;100779.75;;;7.31;100.00
5413;BME280;2729;50.056;8.678;2023-02-01T01:13:45;100778.00;;;7.36;100.00
5413;BME280;2729;50.056;8.678;2023-02-01T01:16:12;100782.28;;;7.45;100.00
5413;BME280;2729;50.056;8.678;2023-02-01T01:18:39;100768.53;;;7.19;100.00
5413;BME280;2729;50.056;8.678;2023-02-01T01:21:06;100772.81;;;7.38;100.00
5413;BME280;2729;50.056;8.678;2023-02-01T01:23:33;100771.94;;;7.34;100.00
5413;BME280;2729;50.056;8.678;2023-02-01T01:25:59;100772.75;;;7.53;100.00
5413;BME280;2729;50.056;8.678;2023-02-01T01:28:25;100770.06;;;7.70;100.00
5413;BME280;2729;50.056;8.678;2023-02-01T01:30:51;100768.34;;;7.64;100.00
5413;BME280;2729;50.056;8.678;2023-02-01T01:33:17;100774.50;;;7.48;100.00
5413;BME280;2729;50.056;8.678;2023-02-01T01:35:43;100771.88;;;7.53;100.00
5413;BME280;2729;50.056;8.678;2023-02-01T01:38:10;100772.78;;;7.39;100.00
5413;BME280;2729;50.056;8.678;2023-02-01T01:40:36;100764.13;;;7.43;100.00
5413;BME280;2729;50.056;8.678;2023-02-01T01:43:02;100766.66;;;7.57;100.00
5413;BME280;2729;50.056;8.678;2023-02-01T01:45:33;100758.97;;;7.30;100.00
5413;BME280;2729;50.056;8.678;2023-02-01T01:48:11;100769.34;;;7.39;100.00
5413;BME280;2729;50.056;8.678;2023-02-01T01:50:42;100748.59;;;7.28;100.00
5413;BME280;2729;50.056;8.678;2023-02-01T01:53:12;100757.28;;;7.24;100.00
5413;BME280;2729;50.056;8.678;2023-02-01T01:55:42;100756.34;;;7.40;100.00
5413;BME280;2729;50.056;8.678;2023-02-01T01:58:13;100757.22;;;7.38;100.00
5413;BME280;2729;50.056;8.678;2023-02-01T02:00:40;100761.53;;;7.42;100.00
5413;BME280;2729;50.056;8.678;2023-02-01T02:03:22;100758.13;;;7.25;100.00
5413;BME280;2729;50.056;8.678;2023-02-01T02:05:50;100746.88;;;7.30;100.00
5413;BME280;2729;50.056;8.678;2023-02-01T02:08:18;100745.13;;;7.35;100.00
5413;BME280;2729;50.056;8.678;2023-02-01T02:10:48;100734.78;;;7.25;100.00
5413;BME280;2729;50.056;8.678;2023-02-01T02:13:40;100722.56;;;7.45;100.00
5413;BME280;2729;50.056;8.678;2023-02-01T02:19:37;100707.03;;;7.34;100.00
5413;BME280;2729;50.056;8.678;2023-02-01T02:39:49;100727.69;;;7.57;100.00
5413;BME280;2729;50.056;8.678;2023-02-01T02:42:29;100726.91;;;7.45;100.00
5413;BME280;2729;50.056;8.678;2023-02-01T02:45:23;100736.53;;;7.18;100.00
5413;BME280;2729;50.056;8.678;2023-02-01T02:48:47;100739.94;;;7.34;100.00
5413;BME280;2729;50.056;8.678;2023-02-01T02:51:20;100736.50;;;7.23;100.00
5413;BME280;2729;50.056;8.678;2023-02-01T02:54:12;100739.09;;;7.23;100.00
5413;BME280;2729;50.056;8.678;2023-02-01T02:56:59;100735.63;;;7.30;100.00
5413;BME280;2729;50.056;8.678;2023-02-01T02:59:47;100733.13;;;7.05;100.00
5413;BME280;2729;50.056;8.678;2023-02-01T03:02:33;100729.56;;;7.29;100.00
5413;BME280;2729;50.056;8.678;2023-02-01T03:05:18;100720.00;;;7.40;100.00
5413;BME280;2729;50.056;8.678;2023-02-01T03:08:10;100713.97;;;7.32;100.00
5413;BME280;2729;50.056;8.678;2023-02-01T03:10:48;100720.94;;;7.24;100.00
5413;BME280;2729;50.056;8.678;2023-02-01T03:13:37;100711.44;;;7.22;100.00
5413;BME280;2729;50.056;8.678;2023-02-01T03:16:25;100714.03;;;7.20;100.00
5413;BME280;2729;50.056;8.678;2023-02-01T03:21:43;100718.34;;;7.23;100.00
5413;BME280;2729;50.056;8.678;2023-02-01T03:24:15;100718.28;;;7.35;100.00
5413;BME280;2729;50.056;8.678;2023-02-01T03:26:48;100708.75;;;7.40;100.00
5413;BME280;2729;50.056;8.678;2023-02-01T03:29:18;100708.78;;;7.29;100.00
5413;BME280;2729;50.056;8.678;2023-02-01T03:31:47;100707.03;;;7.33;100.00
5413;BME280;2729;50.056;8.678;2023-02-01T03:34:13;100710.50;;;7.35;100.00
5413;BME280;2729;50.056;8.678;2023-02-01T03:37:06;100707.09;;;7.25;100.00
5413;BME280;2729;50.056;8.678;2023-02-01T03:39:47;100709.59;;;7.42;100.00
5413;BME280;2729;50.056;8.678;2023-02-01T03:42:22;100705.31;;;7.36;100.00
5413;BME280;2729;50.056;8.678;2023-02-01T03:44:54;100699.34;;;7.13;100.00
5413;BME280;2729;50.056;8.678;2023-02-01T03:47:27;100703.63;;;7.25;100.00
5413;BME280;2729;50.056;8.678;2023-02-01T03:49:59;100700.16;;;7.27;100.00
5413;BME280;2729;50.056;8.678;2023-02-01T03:52:37;100693.16;;;7.41;100.00
5413;BME280;2729;50.056;8.678;2023-02-01T03:55:06;100694.94;;;7.30;100.00
5413;BME280;2729;50.056;8.678;2023-02-01T03:57:36;100694.13;;;7.18;100.00
5413;BME280;2729;50.056;8.678;2023-02-01T04:00:30;100688.00;;;7.32;100.00
5413;BME280;2729;50.056;8.678;2023-02-01T04:02:57;100681.97;;;7.29;100.00
5413;BME280;2729;50.056;8.678;2023-02-01T04:05:23;100682.81;;;7.34;100.00
5413;BME280;2729;50.056;8.678;2023-02-01T04:07:57;100675.06;;;7.25;100.00
5413;BME280;2729;50.056;8.678;2023-02-01T04:10:23;100676.84;;;7.18;100.00
5413;BME280;2729;50.056;8.678;2023-02-01T04:12:49;100681.16;;;7.19;100.00
5413;BME280;2729;50.056;8.678;2023-02-01T04:15:15;100681.16;;;7.16;100.00
5413;BME280;2729;50.056;8.678;2023-02-01T04:17:41;100688.91;;;7.24;100.00
5413;BME280;2729;50.056;8.678;2023-02-01T04:20:08;100681.16;;;7.19;100.00
5413;BME280;2729;50.056;8.678;2023-02-01T04:22:34;100686.28;;;7.33;100.00
5413;BME280;2729;50.056;8.678;2023-02-01T04:25:00;100685.44;;;7.28;100.00
5413;BME280;2729;50.056;8.678;2023-02-01T04:27:26;100682.06;;;7.10;100.00
5413;BME280;2729;50.056;8.678;2023-02-01T04:29:52;100682.84;;;7.25;100.00
5413;BME280;2729;50.056;8.678;2023-02-01T04:32:18;100675.06;;;7.28;100.00
5413;BME280;2729;50.056;8.678;2023-02-01T04:34:45;100688.88;;;7.33;100.00
5413;BME280;2729;50.056;8.678;2023-02-01T04:37:11;100682.84;;;7.28;100.00
5413;BME280;2729;50.056;8.678;2023-02-01T04:39:37;100693.22;;;7.29;100.00
5413;BME280;2729;50.056;8.678;2023-02-01T04:42:03;100691.53;;;7.19;100.00
5413;BME280;2729;50.056;8.678;2023-02-01T04:44:29;100702.81;;;7.12;100.00
5413;BME280;2729;50.056;8.678;2023-02-01T04:46:55;100699.38;;;7.10;100.00
5413;BME280;2729;50.056;8.678;2023-02-01T04:49:21;100701.88;;;7.31;100.00
5413;BME280;2729;50.056;8.678;2023-02-01T04:51:47;100688.16;;;7.03;100.00
5413;BME280;2729;50.056;8.678;2023-02-01T04:54:13;100696.63;;;7.37;100.00
5413;BME280;2729;50.056;8.678;2023-02-01T04:56:40;100682.00;;;7.20;100.00
5413;BME280;2729;50.056;8.678;2023-02-01T04:59:06;100680.25;;;7.28;100.00
5413;BME280;2729;50.056;8.678;2023-02-01T05:01:32;100674.22;;;7.23;100.00
5413;BME280;2729;50.056;8.678;2023-02-01T05:03:58;100675.03;;;7.29;100.00
5413;BME280;2729;50.056;8.678;2023-02-01T05:06:24;100675.06;;;7.23;100.00
5413;BME280;2729;50.056;8.678;2023-02-01T05:08:50;100668.97;;;7.35;100.00
5413;BME280;2729;50.056;8.678;2023-02-01T05:11:16;100671.66;;;7.14;100.00
5413;BME280;2729;50.056;8.678;2023-02-01T05:14:01;100680.25;;;7.26;100.00
5413;BME280;2729;50.056;8.678;2023-02-01T05:16:26;100677.56;;;7.45;100.00
5413;BME280;2729;50.056;8.678;2023-02-01T05:18:53;100664.59;;;7.40;100.00
5413;BME280;2729;50.056;8.678;2023-02-01T05:21:19;100656.84;;;7.32;100.00
5413;BME280;2729;50.056;8.678;2023-02-01T05:23:45;100663.75;;;7.36;100.00
5413;BME280;2729;50.056;8.678;2023-02-01T05:26:30;100663.03;;;7.08;100.00
5413;BME280;2729;50.056;8.678;2023-02-01T05:28:56;100653.47;;;7.21;100.00
5413;BME280;2729;50.056;8.678;2023-02-01T05:31:23;100659.44;;;7.32;100.00
5413;BME280;2729;50.056;8.678;2023-02-01T05:33:49;100665.53;;;7.31;100.00
5413;BME280;2729;50.056;8.678;2023-02-01T05:36:15;100675.00;;;7.40;100.00
5413;BME280;2729;50.056;8.678;2023-02-01T05:38:41;100669.00;;;7.27;100.00
5413;BME280;2729;50.056;8.678;2023-02-01T05:41:08;100665.47;;;7.40;100.00
5413;BME280;2729;50.056;8.678;2023-02-01T05:43:34;100670.69;;;7.34;100.00
5413;BME280;2729;50.056;8.678;2023-02-01T05:46:00;100668.06;;;7.39;100.00
5413;BME280;2729;50.056;8.678;2023-02-01T05:48:26;100674.16;;;7.35;100.00
5413;BME280;2729;50.056;8.678;2023-02-01T05:50:52;100673.34;;;7.25;100.00
5413;BME280;2729;50.056;8.678;2023-02-01T05:53:18;100662.88;;;7.40;100.00
5413;BME280;2729;50.056;8.678;2023-02-01T05:55:44;100676.75;;;7.35;100.00
5413;BME280;2729;50.056;8.678;2023-02-01T05:58:10;100660.31;;;7.34;100.00
5413;BME280;2729;50.056;8.678;2023-02-01T06:00:36;100674.16;;;7.33;100.00
5413;BME280;2729;50.056;8.678;2023-02-01T06:03:02;100672.44;;;7.29;100.00
5413;BME280;2729;50.056;8.678;2023-02-01T06:05:28;100674.28;;;7.09;100.00
5413;BME280;2729;50.056;8.678;2023-02-01T06:07:54;100656.97;;;7.11;100.00
5413;BME280;2729;50.056;8.678;2023-02-01T06:10:20;100657.81;;;7.18;100.00
5413;BME280;2729;50.056;8.678;2023-02-01T06:12:46;100652.66;;;7.08;100.00
5413;BME280;2729;50.056;8.678;2023-02-01T06:15:13;100659.66;;;6.87;100.00
5413;BME280;2729;50.056;8.678;2023-02-01T06:17:42;100663.09;;;6.96;100.00
5413;BME280;2729;50.056;8.678;2023-02-01T06:20:10;100654.44;;;6.96;100.00
5413;BME280;2729;50.056;8.678;2023-02-01T06:22:36;100657.03;;;6.99;100.00
5413;BME280;2729;50.056;8.678;2023-02-01T06:25:03;100658.84;;;6.72;100.00
5413;BME280;2729;50.056;8.678;2023-02-01T06:27:30;100657.97;;;6.76;100.00
5413;BME280;2729;50.056;8.678;2023-02-01T06:29:56;100668.28;;;6.96;100.00
5413;BME280;2729;50.056;8.678;2023-02-01T06:32:22;100671.81;;;6.69;100.00
5413;BME280;2729;50.056;8.678;2023-02-01T06:34:49;100668.31;;;6.83;100.00
5413;BME280;2729;50.056;8.678;2023-02-01T06:37:15;100676.16;;;6.70;100.00
5413;BME280;2729;50.056;8.678;2023-02-01T06:39:41;100681.34;;;6.69;100.00
5413;BME280;2729;50.056;8.678;2023-02-01T06:42:07;100673.56;;;6.67;100.00
5413;BME280;2729;50.056;8.678;2023-02-01T06:44:33;100672.69;;;6.67;100.00
5413;BME280;2729;50.056;8.678;2023-02-01T06:46:59;100666.69;;;6.56;100.00
5413;BME280;2729;50.056;8.678;2023-02-01T06:49:25;100665.81;;;6.55;100.00
5413;BME280;2729;50.056;8.678;2023-02-01T06:51:50;100666.66;;;6.63;100.00
5413;BME280;2729;50.056;8.678;2023-02-01T06:54:16;100673.56;;;6.69;100.00
5413;BME280;2729;50.056;8.678;2023-02-01T06:56:42;100677.94;;;6.47;100.00
5413;BME280;2729;50.056;8.678;2023-02-01T06:59:09;100684.84;;;6.51;100.00
5413;BME280;2729;50.056;8.678;2023-02-01T07:01:36;100685.69;;;6.53;100.00
5413;BME280;2729;50.056;8.678;2023-02-01T07:04:02;100681.38;;;6.58;100.00
5413;BME280;2729;50.056;8.678;2023-02-01T07:06:28;100680.53;;;6.49;100.00
5413;BME280;2729;50.056;8.678;2023-02-01T07:08:54;100675.34;;;6.50;100.00
5413;BME280;2729;50.056;8.678;2023-02-01T07:11:23;100663.25;;;6.46;100.00
5413;BME280;2729;50.056;8.678;2023-02-01T07:13:49;100664.13;;;6.40;100.00
5413;BME280;2729;50.056;8.678;2023-02-01T07:16:17;100675.38;;;6.27;100.00
5413;BME280;2729;50.056;8.678;2023-02-01T07:18:44;100668.47;;;6.23;100.00
5413;BME280;2729;50.056;8.678;2023-02-01T07:21:10;100672.75;;;6.30;100.00
5413;BME280;2729;50.056;8.678;2023-02-01T07:23:36;100666.72;;;6.27;100.00
5413;BME280;2729;50.056;8.678;2023-02-01T07:26:05;100667.59;;;6.23;100.00
5413;BME280;2729;50.056;8.678;2023-02-01T07:28:33;100656.34;;;6.36;100.00
5413;BME280;2729;50.056;8.678;2023-02-01T07:31:07;100667.59;;;6.26;100.00
5413;BME280;2729;50.056;8.678;2023-02-01T07:33:34;100665.00;;;6.32;100.00
5413;BME280;2729;50.056;8.678;2023-02-01T07:36:02;100675.38;;;6.29;100.00
5413;BME280;2729;50.056;8.678;2023-02-01T07:38:28;100673.63;;;6.31;100.00
5413;BME280;2729;50.056;8.678;2023-02-01T07:41:04;100676.19;;;6.49;100.00
5413;BME280;2729;50.056;8.678;2023-02-01T07:43:31;100682.19;;;6.68;100.00
5413;BME280;2729;50.056;8.678;2023-02-01T07:45:57;100692.59;;;6.59;100.00
5413;BME280;2729;50.056;8.678;2023-02-01T07:48:24;100702.13;;;6.40;100.00
5413;BME280;2729;50.056;8.678;2023-02-01T07:51:08;100708.19;;;6.45;100.00
5413;BME280;2729;50.056;8.678;2023-02-01T07:53:35;100716.81;;;6.56;100.00
5413;BME280;2729;50.056;8.678;2023-02-01T07:56:07;100711.59;;;6.70;100.00
5413;BME280;2729;50.056;8.678;2023-02-01T07:58:35;100721.97;;;6.61;100.00
5413;BME280;2729;50.056;8.678;2023-02-01T08:01:00;100727.16;;;6.68;100.00
5413;BME280;2729;50.056;8.678;2023-02-01T08:03:49;100709.84;;;6.76;100.00
5413;BME280;2729;50.056;8.678;2023-02-01T08:06:15;100726.28;;;6.69;100.00
5413;BME280;2729;50.056;8.678;2023-02-01T08:08:42;100718.47;;;6.82;100.00
5413;BME280;2729;50.056;8.678;2023-02-01T08:11:11;100710.72;;;6.78;100.00
5413;BME280;2729;50.056;8.678;2023-02-01T08:13:37;100713.25;;;6.95;100.00
5413;BME280;2729;50.056;8.678;2023-02-01T08:16:06;100719.22;;;7.20;100.00
5413;BME280;2729;50.056;8.678;2023-02-01T08:18:33;100726.16;;;7.14;100.00
5413;BME280;2729;50.056;8.678;2023-02-01T08:21:17;100724.44;;;7.14;100.00
5413;BME280;2729;50.056;8.678;2023-02-01T08:23:44;100726.09;;;7.29;100.00
5413;BME280;2729;50.056;8.678;2023-02-01T08:26:22;100719.13;;;7.40;100.00
5413;BME280;2729;50.056;8.678;2023-02-01T08:28:57;100724.28;;;7.48;100.00
5413;BME280;2729;50.056;8.678;2023-02-01T08:31:25;100734.66;;;7.54;100.00
5413;BME280;2729;50.056;8.678;2023-02-01T08:33:57;100728.63;;;7.42;100.00
5413;BME280;2729;50.056;8.678;2023-02-01T08:36:25;100730.34;;;7.47;100.00
5413;BME280;2729;50.056;8.678;2023-02-01T08:38:51;100731.19;;;7.55;100.00
5413;BME280;2729;50.056;8.678;2023-02-01T08:41:20;100740.69;;;7.57;100.00
5413;BME280;2729;50.056;8.678;2023-02-01T08:43:46;100734.50;;;7.78;100.00
5413;BME280;2729;50.056;8.678;2023-02-01T08:46:13;100741.44;;;7.76;100.00
5413;BME280;2729;50.056;8.678;2023-02-01T08:48:40;100745.91;;;7.54;100.00
5413;BME280;2729;50.056;8.678;2023-02-01T08:51:08;100749.25;;;7.71;100.00
5413;BME280;2729;50.056;8.678;2023-02-01T08:53:35;100748.41;;;7.69;100.00
5413;BME280;2729;50.056;8.678;2023-02-01T08:56:02;100757.09;;;7.67;100.00
5413;BME280;2729;50.056;8.678;2023-02-01T08:58:28;100744.88;;;7.86;100.00
5413;BME280;2729;50.056;8.678;2023-02-01T09:00:54;100746.63;;;7.76;100.00
5413;BME280;2729;50.056;8.678;2023-02-01T09:03:21;100738.88;;;7.71;100.00
5413;BME280;2729;50.056;8.678;2023-02-01T09:05:47;100734.53;;;7.75;100.00
5413;BME280;2729;50.056;8.678;2023-02-01T09:08:13;100738.81;;;7.87;100.00
5413;BME280;2729;50.056;8.678;2023-02-01T09:10:41;100740.56;;;7.86;100.00
5413;BME280;2729;50.056;8.678;2023-02-01T09:13:08;100731.03;;;7.85;100.00
5413;BME280;2729;50.056;8.678;2023-02-01T09:15:34;100746.59;;;7.87;100.00
5413;BME280;2729;50.056;8.678;2023-02-01T09:18:01;100736.25;;;7.81;100.00
5413;BME280;2729;50.056;8.678;2023-02-01T09:20:27;100742.13;;;8.10;100.00
5413;BME280;2729;50.056;8.678;2023-02-01T09:22:55;100745.75;;;7.86;100.00
5413;BME280;2729;50.056;8.678;2023-02-01T09:25:21;100752.66;;;7.87;100.00
5413;BME280;2729;50.056;8.678;2023-02-01T09:27:46;100755.16;;;8.05;100.00
5413;BME280;2729;50.056;8.678;2023-02-01T09:30:13;100759.50;;;8.00;100.00
5413;BME280;2729;50.056;8.678;2023-02-01T09:32:38;100772.56;;;7.93;100.00
5413;BME280;2729;50.056;8.678;2023-02-01T09:35:05;100773.38;;;8.01;100.00
5413;BME280;2729;50.056;8.678;2023-02-01T09:37:31;100774.19;;;8.06;100.00
5413;BME280;2729;50.056;8.678;2023-02-01T09:39:57;100772.50;;;8.00;100.00
5413;BME280;2729;50.056;8.678;2023-02-01T09:45:20;100782.06;;;7.95;100.00
5413;BME280;2729;50.056;8.678;2023-02-01T09:47:52;100778.59;;;7.95;100.00
5413;BME280;2729;50.056;8.678;2023-02-01T09:50:21;100787.13;;;8.17;100.00
5413;BME280;2729;50.056;8.678;2023-02-01T09:55:27;100798.44;;;8.08;100.00
5413;BME280;2729;50.056;8.678;2023-02-01T09:58:00;100792.34;;;8.15;100.00
5413;BME280;2729;50.056;8.678;2023-02-01T10:00:36;100789.72;;;8.20;100.00
5413;BME280;2729;50.056;8.678;2023-02-01T10:03:03;100788.03;;;8.10;100.00
5413;BME280;2729;50.056;8.678;2023-02-01T10:05:42;100790.66;;;8.10;100.00
5413;BME280;2729;50.056;8.678;2023-02-01T10:08:26;100778.13;;;8.62;100.00
5413;BME280;2729;50.056;8.678;2023-02-01T10:17:04;100771.44;;;8.35;100.00
5413;BME280;2729;50.056;8.678;2023-02-01T10:22:32;100758.47;;;8.24;100.00
5413;BME280;2729;50.056;8.678;2023-02-01T10:25:38;100756.66;;;8.40;100.00
5413;BME280;2729;50.056;8.678;2023-02-01T10:28:10;100754.94;;;8.37;100.00
5413;BME280;2729;50.056;8.678;2023-02-01T10:30:43;100751.41;;;8.43;100.00
5413;BME280;2729;50.056;8.678;2023-02-01T10:33:24;100745.19;;;8.62;100.00
5413;BME280;2729;50.056;8.678;2023-02-01T10:36:01;100745.22;;;8.59;100.00
5413;BME280;2729;50.056;8.678;2023-02-01T10:38:30;100741.00;;;8.43;100.00
5413;BME280;2729;50.056;8.678;2023-02-01T10:41:11;100744.41;;;8.51;100.00
5413;BME280;2729;50.056;8.678;2023-02-01T10:43:37;100743.63;;;8.42;100.00
5413;BME280;2729;50.056;8.678;2023-02-01T10:46:06;100752.09;;;8.65;100.00
5413;BME280;2729;50.056;8.678;2023-02-01T10:48:33;100738.19;;;8.69;100.00
5413;BME280;2729;50.056;8.678;2023-02-01T10:51:12;100736.56;;;8.56;100.00
5413;BME280;2729;50.056;8.678;2023-02-01T10:53:57;100727.94;;;8.52;100.00
5413;BME280;2729;50.056;8.678;2023-02-01T10:56:26;100722.78;;;8.46;100.00
5413;BME280;2729;50.056;8.678;2023-02-01T10:59:00;100718.22;;;8.69;100.00
5413;BME280;2729;50.056;8.678;2023-02-01T11:01:43;100721.75;;;8.64;100.00
5413;BME280;2729;50.056;8.678;2023-02-01T11:04:15;100721.38;;;8.99;100.00
5413;BME280;2729;50.056;8.678;2023-02-01T11:06:44;100718.06;;;8.85;100.00
5413;BME280;2729;50.056;8.678;2023-02-01T11:09:22;100718.03;;;8.88;100.00
5413;BME280;2729;50.056;8.678;2023-02-01T11:14:39;100720.75;;;8.77;100.00
5413;BME280;2729;50.056;8.678;2023-02-01T11:17:20;100715.53;;;8.79;100.00
5413;BME280;2729;50.056;8.678;2023-02-01T11:19:58;100716.38;;;8.81;100.00
5413;BME280;2729;50.056;8.678;2023-02-01T11:22:26;100714.66;;;8.80;100.00
5413;BME280;2729;50.056;8.678;2023-02-01T11:24:53;100725.19;;;8.66;100.00
5413;BME280;2729;50.056;8.678;2023-02-01T11:27:22;100722.78;;;8.45;100.00
5413;BME280;2729;50.056;8.678;2023-02-01T11:29:51;100716.31;;;8.85;100.00
5413;BME280;2729;50.056;8.678;2023-02-01T11:32:20;100711.22;;;8.75;100.00
5413;BME280;2729;50.056;8.678;2023-02-01T11:34:52;100726.16;;;8.56;100.00
5413;BME280;2729;50.056;8.678;2023-02-01T11:37:21;100706.84;;;8.78;100.00
5413;BME280;2729;50.056;8.678;2023-02-01T11:42:58;100697.41;;;8.68;100.00
5413;BME280;2729;50.056;8.678;2023-02-01T11:45:27;100697.97;;;8.97;100.00
5413;BME280;2729;50.056;8.678;2023-02-01T11:47:54;100702.31;;;8.95;100.00
5413;BME280;2729;50.056;8.678;2023-02-01T11:50:40;100688.69;;;8.74;100.00
5413;BME280;2729;50.056;8.678;2023-02-01T12:04:39;100693.59;;;8.99;100.00
5413;BME280;2729;50.056;8.678;2023-02-01T12:13:07;100682.56;;;8.79;100.00
5413;BME280;2729;50.056;8.678;2023-02-01T12:18:35;100679.91;;;8.82;100.00
5413;BME280;2729;50.056;8.678;2023-02-01T12:24:48;100684.31;;;8.77;100.00
5413;BME280;2729;50.056;8.678;2023-02-01T12:27:40;100690.44;;;8.73;100.00
5413;BME280;2729;50.056;8.678;2023-02-01T12:30:24;100684.25;;;8.83;100.00
5413;BME280;2729;50.056;8.678;2023-02-01T12:33:14;100676.66;;;8.62;100.00
5413;BME280;2729;50.056;8.678;2023-02-01T12:38:43;100659.75;;;9.01;100.00
5413;BME280;2729;50.056;8.678;2023-02-01T12:41:23;100669.75;;;8.61;100.00
5413;BME280;2729;50.056;8.678;2023-02-01T12:44:09;100667.53;;;9.02;100.00
5413;BME280;2729;50.056;8.678;2023-02-01T12:47:00;100663.63;;;8.65;100.00
5413;BME280;2729;50.056;8.678;2023-02-01T12:49:46;100659.50;;;8.46;100.00
5413;BME280;2729;50.056;8.678;2023-02-01T12:52:18;100655.75;;;8.73;100.00
5413;BME280;2729;50.056;8.678;2023-02-01T12:57:30;100645.06;;;8.94;100.00
5413;BME280;2729;50.056;8.678;2023-02-01T13:00:26;100646.25;;;8.68;100.00
5413;BME280;2729;50.056;8.678;2023-02-01T13:03:17;100645.31;;;8.73;100.00
5413;BME280;2729;50.056;8.678;2023-02-01T13:06:11;100642.41;;;9.00;100.00
5413;BME280;2729;50.056;8.678;2023-02-01T13:11:37;100629.59;;;8.82;100.00
5413;BME280;2729;50.056;8.678;2023-02-01T13:14:19;100640.81;;;8.88;100.00
5413;BME280;2729;50.056;8.678;2023-02-01T13:16:51;100640.03;;;8.80;100.00
5413;BME280;2729;50.056;8.678;2023-02-01T13:19:29;100640.09;;;8.74;100.00
5413;BME280;2729;50.056;8.678;2023-02-01T13:22:06;100642.53;;;8.88;100.00
5413;BME280;2729;50.056;8.678;2023-02-01T13:24:48;100637.47;;;8.77;100.00
5413;BME280;2729;50.056;8.678;2023-02-01T13:27:16;100617.53;;;8.75;100.00
5413;BME280;2729;50.056;8.678;2023-02-01T13:30:01;100622.06;;;9.26;100.00
5413;BME280;2729;50.056;8.678;2023-02-01T13:32:43;100624.69;;;9.25;100.00
5413;BME280;2729;50.056;8.678;2023-02-01T13:40:48;100616.31;;;9.03;100.00
5413;BME280;2729;50.056;8.678;2023-02-01T13:43:26;100607.53;;;9.12;100.00
5413;BME280;2729;50.056;8.678;2023-02-01T13:46:05;100616.31;;;9.05;100.00
5413;BME280;2729;50.056;8.678;2023-02-01T13:48:41;100623.38;;;8.93;100.00
5413;BME280;2729;50.056;8.678;2023-02-01T13:51:13;100608.28;;;9.20;100.00
5413;BME280;2729;50.056;8.678;2023-02-01T13:53:46;100620.75;;;8.96;100.00
5413;BME280;2729;50.056;8.678;2023-02-01T13:56:16;100612.47;;;9.31;100.00
5413;BME280;2729;50.056;8.678;2023-02-01T13:58:44;100605.25;;;9.49;100.00
5413;BME280;2729;50.056;8.678;2023-02-01T14:03:50;100608.56;;;9.60;100.00
5413;BME280;2729;50.056;8.678;2023-02-01T14:06:35;100602.59;;;9.52;100.00
5413;BME280;2729;50.056;8.678;2023-02-01T14:09:12;100605.56;;;9.27;100.00
5413;BME280;2729;50.056;8.678;2023-02-01T14:11:43;100598.47;;;9.37;100.00
5413;BME280;2729;50.056;8.678;2023-02-01T14:16:39;100592.38;;;9.40;100.00
5413;BME280;2729;50.056;8.678;2023-02-01T14:19:08;100587.13;;;9.41;100.00
5413;BME280;2729;50.056;8.678;2023-02-01T14:21:48;100576.25;;;9.70;100.00
5413;BME280;2729;50.056;8.678;2023-02-01T14:24:24;100568.41;;;9.72;100.00
5413;BME280;2729;50.056;8.678;2023-02-01T14:26:52;100571.81;;;9.75;100.00
5413;BME280;2729;50.056;8.678;2023-02-01T14:31:58;100570.25;;;9.65;100.00
5413;BME280;2729;50.056;8.678;2023-02-01T14:37:03;100568.78;;;9.99;100.00
5413;BME280;2729;50.056;8.678;2023-02-01T14:39:37;100573.66;;;9.68;97.46
5413;BME280;2729;50.056;8.678;2023-02-01T14:42:38;100564.72;;;9.85;99.26
5413;BME280;2729;50.056;8.678;2023-02-01T14:47:43;100570.75;;;10.36;99.08
5413;BME280;2729;50.056;8.678;2023-02-01T14:52:38;100566.25;;;9.95;99.01
5413;BME280;2729;50.056;8.678;2023-02-01T14:55:18;100563.78;;;9.87;98.54
5413;BME280;2729;50.056;8.678;2023-02-01T14:57:50;100562.06;;;9.86;97.89
5413;BME280;2729;50.056;8.678;2023-02-01T15:00:24;100570.41;;;10.07;99.71
5413;BME280;2729;50.056;8.678;2023-02-01T15:02:52;100560.59;;;10.21;100.00
5413;BME280;2729;50.056;8.678;2023-02-01T15:05:25;100568.41;;;9.72;94.97
5413;BME280;2729;50.056;8.678;2023-02-01T15:07:52;100567.38;;;9.80;95.24